Time;durP1;ratioP1;P1;durP2;ratioP2;P2;SDS_P1;SDS_P2;PMS_P1;PMS_P2;Temp;Humidity;BMP_temperature;BMP_pressure;BME280_temperature;BME280_humidity;BME280_pressure;Samples;Min_cycle;Max_cycle;Signal;HPM_P1;HPM_P2
2023/03/19 00:02:01;;;;;;;7.78;2.70;;;;;;;-0.98;43.50;100827.94;5067985;28;20051;-38
2023/03/19 00:04:27;;;;;;;10.90;2.92;;;;;;;-1.01;43.79;100821.91;5082576;28;20046;-37
2023/03/19 00:06:53;;;;;;;6.95;3.30;;;;;;;-0.88;43.93;100846.94;5087597;28;20450;-36
2023/03/19 00:09:20;;;;;;;8.80;2.63;;;;;;;-0.87;43.93;100841.03;5099922;28;20046;-38
2023/03/19 00:11:47;;;;;;;8.18;2.58;;;;;;;-0.89;43.86;100838.41;5073245;28;20098;-38
2023/03/19 00:14:13;;;;;;;5.10;2.45;;;;;;;-1.08;43.87;100814.84;5073730;28;20137;-38
2023/03/19 00:16:39;;;;;;;5.75;2.17;;;;;;;-0.95;44.03;100834.84;5082315;28;20040;-37
2023/03/19 00:19:05;;;;;;;4.88;2.47;;;;;;;-0.95;44.26;100832.28;5080674;28;20059;-37
2023/03/19 00:21:31;;;;;;;6.82;2.38;;;;;;;-0.96;44.33;100826.31;5079629;28;20079;-37
2023/03/19 00:24:01;;;;;;;5.00;2.50;;;;;;;-0.99;44.34;100822.78;5067415;28;20630;-37
2023/03/19 00:26:28;;;;;;;7.20;3.22;;;;;;;-1.01;44.42;100832.97;5085225;28;20048;-38
2023/03/19 00:28:54;;;;;;;7.22;2.63;;;;;;;-1.18;44.72;100798.41;5081666;28;20139;-36
2023/03/19 00:31:21;;;;;;;9.25;2.67;;;;;;;-1.01;44.62;100822.75;5084102;28;20032;-37
2023/03/19 00:33:48;;;;;;;9.90;3.13;;;;;;;-1.05;44.78;100812.41;5073653;28;20184;-38
2023/03/19 00:36:15;;;;;;;9.70;3.17;;;;;;;-1.06;44.74;100814.09;5069872;28;20079;-37
2023/03/19 00:38:42;;;;;;;7.22;2.90;;;;;;;-1.04;44.80;100817.53;5086569;28;20581;-37
2023/03/19 00:41:08;;;;;;;8.50;2.83;;;;;;;-1.03;44.87;100824.38;5071241;28;20471;-38
2023/03/19 00:43:34;;;;;;;6.30;2.90;;;;;;;-1.22;44.77;100790.63;5073092;28;20050;-37
2023/03/19 00:46:00;;;;;;;9.75;2.60;;;;;;;-1.06;45.09;100824.31;5089057;28;20036;-37
2023/03/19 00:48:26;;;;;;;5.65;2.40;;;;;;;-1.07;45.26;100817.47;5073502;28;20036;-37
2023/03/19 00:50:52;;;;;;;7.13;2.45;;;;;;;-1.40;45.23;100763.72;5091381;28;20400;-37
2023/03/19 00:53:18;;;;;;;9.38;2.50;;;;;;;-1.09;45.25;100816.53;5079282;28;20048;-38
2023/03/19 00:55:45;;;;;;;6.22;2.30;;;;;;;-1.07;45.29;100814.03;5086984;28;20170;-36
2023/03/19 00:58:10;;;;;;;6.88;2.75;;;;;;;-1.20;45.42;100794.09;5074353;28;20040;-37
2023/03/19 01:00:37;;;;;;;7.70;2.72;;;;;;;-1.12;45.13;100807.94;5070701;28;20538;-37
2023/03/19 01:03:05;;;;;;;9.43;2.42;;;;;;;-1.12;45.30;100807.94;5079757;28;20120;-38
2023/03/19 01:05:33;;;;;;;12.20;3.00;;;;;;;-1.16;45.48;100806.13;5071990;28;20047;-37
2023/03/19 01:07:59;;;;;;;7.10;2.45;;;;;;;-1.18;45.69;100810.28;5090124;28;20044;-38
2023/03/19 01:10:25;;;;;;;9.13;3.08;;;;;;;-1.22;46.02;100813.59;5091141;28;20043;-38
2023/03/19 01:12:51;;;;;;;8.27;3.20;;;;;;;-1.24;45.99;100808.41;5065694;28;20036;-38
2023/03/19 01:15:17;;;;;;;7.47;3.08;;;;;;;-1.23;45.78;100811.84;5090901;28;20531;-38
2023/03/19 01:17:43;;;;;;;6.22;2.47;;;;;;;-1.24;46.04;100803.31;5074975;28;20503;-39
2023/03/19 01:20:17;;;;;;;7.18;2.63;;;;;;;-1.24;46.38;100800.75;5106390;28;20126;-38
2023/03/19 01:22:44;;;;;;;12.25;3.30;;;;;;;-1.25;46.56;100799.03;5084362;28;20040;-37
2023/03/19 01:25:12;;;;;;;8.73;2.45;;;;;;;-1.64;46.40;100734.06;5101730;28;20040;-38
2023/03/19 01:27:40;;;;;;;6.47;2.45;;;;;;;-1.26;46.46;100793.91;5089459;28;20044;-37
2023/03/19 01:30:07;;;;;;;7.32;2.20;;;;;;;-1.29;46.82;100795.53;5071530;28;20044;-37
2023/03/19 01:32:56;;;;;;;6.53;2.20;;;;;;;-1.30;46.95;100792.91;5074651;28;20044;-37
2023/03/19 01:35:33;;;;;;;6.85;2.22;;;;;;;-1.35;47.14;100791.91;5088454;28;20043;-36
2023/03/19 01:37:59;;;;;;;7.60;2.75;;;;;;;-1.39;47.04;100795.19;5088724;28;20044;-38
2023/03/19 01:40:26;;;;;;;8.55;2.53;;;;;;;-1.61;47.07;100757.06;5071239;28;20090;-37
2023/03/19 01:43:11;;;;;;;8.68;2.97;;;;;;;-1.45;46.94;100789.91;5104041;28;20415;-38
2023/03/19 01:45:57;;;;;;;8.57;2.80;;;;;;;-1.47;47.37;100791.56;5054724;28;20405;-38
2023/03/19 01:48:49;;;;;;;6.93;2.53;;;;;;;-1.47;47.62;100786.44;5083379;28;20070;-38
2023/03/19 01:51:20;;;;;;;9.40;2.92;;;;;;;-1.88;47.56;100722.25;5072651;28;20564;-37
2023/03/19 01:54:03;;;;;;;6.07;2.15;;;;;;;-1.56;47.60;100773.38;5061083;28;20040;-37
2023/03/19 01:57:02;;;;;;;8.20;3.28;;;;;;;-1.57;47.80;100779.34;5068568;28;20091;-38
2023/03/19 01:59:55;;;;;;;9.20;2.27;;;;;;;-1.83;47.83;100738.56;5088511;28;20519;-37
2023/03/19 02:02:40;;;;;;;7.28;2.20;;;;;;;-1.58;48.19;100780.13;5072379;28;20835;-38
2023/03/19 02:05:36;;;;;;;7.55;2.25;;;;;;;-1.62;48.08;100771.50;5054914;28;20064;-37
2023/03/19 02:08:06;;;;;;;6.35;2.75;;;;;;;-1.62;48.55;100771.50;5068986;28;20047;-36
2023/03/19 02:10:33;;;;;;;3.17;1.65;;;;;;;-1.57;48.83;100766.59;5079585;28;20044;-37
2023/03/19 02:12:59;;;;;;;6.03;2.13;;;;;;;-1.60;48.72;100763.91;5088288;28;20040;-37
2023/03/19 02:15:25;;;;;;;9.93;2.58;;;;;;;-1.62;48.87;100758.75;5085834;28;20404;-38
2023/03/19 02:17:52;;;;;;;3.55;1.95;;;;;;;-1.63;49.03;100753.63;5071728;28;20051;-37
2023/03/19 02:20:31;;;;;;;6.90;2.42;;;;;;;-1.64;49.05;100765.50;5066878;28;20044;-37
2023/03/19 02:23:14;;;;;;;;;;;;;;;-1.67;49.32;100751.81;5064798;28;20040;-37
2023/03/19 02:25:43;;;;;;;8.20;2.05;;;;;;;-1.79;49.34;100758.25;5067910;28;20333;-38
2023/03/19 02:28:10;;;;;;;5.78;2.00;;;;;;;-1.99;49.26;100715.09;5075520;28;20341;-39
2023/03/19 02:30:37;;;;;;;9.50;2.50;;;;;;;-1.85;49.20;100747.84;5071295;28;20040;-38
2023/03/19 02:33:12;;;;;;;3.55;1.70;;;;;;;-1.82;49.34;100753.03;5088149;28;20044;-37
2023/03/19 02:35:39;;;;;;;3.67;2.10;;;;;;;-1.79;49.55;100755.69;5086651;28;20043;-38
2023/03/19 02:38:05;;;;;;;3.92;1.80;;;;;;;-1.97;49.52;100723.63;5071287;28;20066;-38
2023/03/19 02:40:46;;;;;;;4.63;1.88;;;;;;;-1.88;49.76;100744.31;5087331;28;20047;-37
2023/03/19 02:43:12;;;;;;;3.13;1.60;;;;;;;-2.02;49.70;100720.06;5087328;28;20542;-37
2023/03/19 02:45:38;;;;;;;7.80;2.03;;;;;;;-1.85;49.69;100758.03;5068007;28;20037;-38
2023/03/19 02:48:05;;;;;;;4.68;1.52;;;;;;;-1.87;50.00;100754.56;5067809;28;20041;-38
2023/03/19 02:50:31;;;;;;;2.70;1.73;;;;;;;-1.87;50.06;100749.47;5084096;28;20115;-37
2023/03/19 02:52:57;;;;;;;4.07;1.90;;;;;;;-1.88;49.78;100752.81;5063706;28;20605;-37
2023/03/19 02:55:23;;;;;;;4.00;1.90;;;;;;;-1.89;49.87;100752.81;5072618;28;20131;-39
2023/03/19 02:57:49;;;;;;;3.38;1.73;;;;;;;-1.90;50.37;100746.84;5067517;28;20036;-37
2023/03/19 03:00:17;;;;;;;3.95;1.65;;;;;;;-1.90;50.32;100744.28;5084293;28;20079;-38
2023/03/19 03:02:44;;;;;;;6.10;2.97;;;;;;;-1.89;50.14;100747.72;5067619;28;20040;-37
2023/03/19 03:05:10;;;;;;;4.05;1.70;;;;;;;-1.91;50.26;100742.56;5073093;28;20515;-38
2023/03/19 03:07:37;;;;;;;5.80;2.28;;;;;;;-1.95;50.39;100740.72;5087618;28;20551;-38
2023/03/19 03:10:03;;;;;;;3.85;1.70;;;;;;;-2.17;50.43;100710.25;5067144;28;20045;-38
2023/03/19 03:12:29;;;;;;;4.15;1.40;;;;;;;-2.00;50.28;100736.28;5067016;28;20045;-39
2023/03/19 03:14:55;;;;;;;4.93;2.15;;;;;;;-2.09;50.47;100718.16;5067434;28;20051;-37
2023/03/19 03:17:23;;;;;;;5.90;1.80;;;;;;;-2.02;50.67;100736.22;5066847;28;20040;-37
2023/03/19 03:19:48;;;;;;;3.33;1.60;;;;;;;-2.02;50.55;100730.28;5086278;28;20124;-37
2023/03/19 03:22:14;;;;;;;5.45;2.35;;;;;;;-2.02;50.74;100733.69;5087161;28;20086;-36
2023/03/19 03:24:41;;;;;;;4.90;1.70;;;;;;;-2.02;50.61;100725.16;5077799;28;20479;-38
2023/03/19 03:27:08;;;;;;;8.15;1.65;;;;;;;-2.03;50.86;100724.31;5068669;28;20075;-38
2023/03/19 03:29:34;;;;;;;6.22;1.58;;;;;;;-2.03;50.76;100720.88;5068279;28;20051;-37
2023/03/19 03:32:00;;;;;;;5.85;1.88;;;;;;;-2.01;50.92;100725.22;5079402;28;20055;-38
2023/03/19 03:34:25;;;;;;;4.55;1.75;;;;;;;-2.29;50.86;100677.59;5077003;28;20044;-38
2023/03/19 03:36:52;;;;;;;6.28;1.80;;;;;;;-1.99;50.95;100721.03;5066777;28;20458;-37
2023/03/19 03:39:18;;;;;;;3.88;1.88;;;;;;;-1.99;51.24;100725.28;5086600;28;20044;-37
2023/03/19 03:41:44;;;;;;;4.18;2.15;;;;;;;-1.98;51.06;100721.91;5069242;28;20080;-37
2023/03/19 03:44:11;;;;;;;6.72;2.08;;;;;;;-1.98;51.18;100725.31;5083605;28;20044;-37
2023/03/19 03:46:39;;;;;;;7.22;2.20;;;;;;;-1.96;51.17;100722.84;5050618;28;20032;-36
2023/03/19 03:49:05;;;;;;;3.47;1.95;;;;;;;-1.97;51.32;100721.09;5094283;28;20155;-37
2023/03/19 03:51:31;;;;;;;3.55;1.85;;;;;;;-2.00;51.27;100724.41;5065530;28;20229;-37
2023/03/19 03:53:57;;;;;;;5.45;2.20;;;;;;;-1.97;51.56;100723.63;5083485;28;20081;-37
2023/03/19 03:56:23;;;;;;;6.53;2.67;;;;;;;-2.09;51.45;100697.78;5081839;28;20891;-36
2023/03/19 03:58:50;;;;;;;7.07;2.55;;;;;;;-1.92;51.42;100717.00;5081433;28;20622;-37
2023/03/19 04:01:17;;;;;;;4.63;2.50;;;;;;;-1.90;52.03;100723.91;5068899;28;20040;-38
2023/03/19 04:03:46;;;;;;;5.38;2.75;;;;;;;-2.03;51.98;100690.31;5087064;28;20105;-43
2023/03/19 04:06:17;;;;;;;7.25;3.00;;;;;;;-1.85;52.22;100719.81;5054878;28;20052;-38
2023/03/19 04:08:43;;;;;;;6.20;2.60;;;;;;;-1.82;52.69;100714.81;5066773;28;20135;-37
2023/03/19 04:11:09;;;;;;;7.70;2.60;;;;;;;-1.77;52.39;100720.03;5072355;28;20032;-36
2023/03/19 04:13:36;;;;;;;7.78;2.45;;;;;;;-1.94;52.16;100683.84;5049873;28;20044;-38
2023/03/19 04:16:08;;;;;;;8.73;3.33;;;;;;;-1.75;52.36;100714.19;5083307;28;20466;-37
2023/03/19 04:18:35;;;;;;;13.05;2.88;;;;;;;-1.73;52.60;100712.53;5049806;28;20045;-36
2023/03/19 04:21:05;;;;;;;8.65;2.58;;;;;;;-1.68;52.64;100709.28;5067014;28;20041;-37
2023/03/19 04:23:31;;;;;;;9.48;3.47;;;;;;;-1.67;52.61;100713.56;5067606;28;20139;-39
2023/03/19 04:25:59;;;;;;;7.65;3.03;;;;;;;-1.67;52.19;100703.38;5065442;28;20080;-38
2023/03/19 04:28:25;;;;;;;8.18;3.42;;;;;;;-1.67;52.35;100704.22;5074983;28;20519;-37
2023/03/19 04:30:51;;;;;;;7.47;3.47;;;;;;;-1.69;52.26;100694.81;5080687;28;20040;-38
2023/03/19 04:33:18;;;;;;;7.63;3.53;;;;;;;-1.63;52.48;100708.63;5084597;28;20075;-38
2023/03/19 04:35:44;;;;;;;7.60;3.40;;;;;;;-1.62;52.33;100702.66;5079522;28;20040;-38
2023/03/19 04:38:10;;;;;;;8.15;3.35;;;;;;;-1.64;52.46;100694.13;5087000;28;20522;-37
2023/03/19 04:40:36;;;;;;;13.48;3.13;;;;;;;-1.61;52.11;100695.91;5097974;28;20511;-38
2023/03/19 04:43:03;;;;;;;7.18;2.97;;;;;;;-1.55;52.22;100696.09;5067966;28;20101;-38
2023/03/19 04:45:33;;;;;;;8.13;3.08;;;;;;;-1.53;52.11;100691.91;5085226;28;20852;-37
2023/03/19 04:48:00;;;;;;;7.22;3.30;;;;;;;-1.49;51.96;100697.13;5086329;28;20130;-38
2023/03/19 04:50:28;;;;;;;7.07;3.28;;;;;;;-1.44;52.05;100697.28;5071488;28;20138;-38
2023/03/19 04:52:54;;;;;;;6.70;2.90;;;;;;;-1.42;51.76;100688.88;5069177;28;20139;-37
2023/03/19 04:55:22;;;;;;;5.57;2.60;;;;;;;-1.37;51.69;100694.09;5084974;28;20591;-38
2023/03/19 04:57:57;;;;;;;8.95;3.85;;;;;;;-1.33;51.47;100694.22;5101773;28;20047;-37
2023/03/19 05:00:27;;;;;;;5.05;2.50;;;;;;;-1.29;51.27;100690.06;5089824;28;20047;-38
2023/03/19 05:02:53;;;;;;;7.47;3.40;;;;;;;-1.25;51.37;100691.00;5071919;28;20055;-37
2023/03/19 05:05:19;;;;;;;7.07;2.50;;;;;;;-1.23;51.10;100685.16;5079248;28;20032;-37
2023/03/19 05:07:46;;;;;;;6.35;2.88;;;;;;;-1.14;51.29;100684.53;5089717;28;20131;-38
2023/03/19 05:10:12;;;;;;;8.45;2.47;;;;;;;-1.08;50.99;100683.03;5085620;28;20580;-38
2023/03/19 05:12:38;;;;;;;4.97;2.33;;;;;;;-1.21;50.94;100646.94;5088691;28;20036;-38
2023/03/19 05:15:06;;;;;;;3.65;2.00;;;;;;;-0.95;50.73;100684.25;5089721;28;20042;-37
2023/03/19 05:17:36;;;;;;;5.80;2.00;;;;;;;-0.98;50.64;100690.13;5106090;28;20075;-38
2023/03/19 05:20:14;;;;;;;4.13;1.95;;;;;;;-0.94;50.58;100685.97;5088219;28;20051;-38
2023/03/19 05:22:47;;;;;;;3.10;1.83;;;;;;;-1.06;50.58;100672.88;5086208;28;20131;-38
2023/03/19 05:25:15;;;;;;;6.57;2.88;;;;;;;-0.99;50.53;100683.28;5088070;28;20036;-37
2023/03/19 05:27:42;;;;;;;3.72;2.15;;;;;;;-0.95;50.70;100681.72;5061238;28;20044;-37
2023/03/19 05:30:17;;;;;;;5.72;2.40;;;;;;;-0.87;50.69;100668.31;5054382;28;20062;-38
2023/03/19 05:33:02;;;;;;;8.10;3.00;;;;;;;-0.75;50.42;100669.47;5084986;28;20048;-38
2023/03/19 05:35:38;;;;;;;7.75;2.60;;;;;;;-0.73;50.20;100670.41;5073623;28;20056;-38
2023/03/19 05:38:11;;;;;;;6.47;3.15;;;;;;;-0.72;50.25;100651.66;5053082;28;20094;-36
2023/03/19 05:40:41;;;;;;;7.72;2.85;;;;;;;-0.64;50.18;100665.53;5085475;28;20052;-38
2023/03/19 05:43:18;;;;;;;5.85;2.60;;;;;;;-0.50;49.99;100659.06;5076682;28;20473;-37
2023/03/19 05:45:49;;;;;;;11.70;2.80;;;;;;;-0.27;49.41;100664.78;5071886;28;20130;-38
2023/03/19 05:48:19;;;;;;;12.70;2.97;;;;;;;-0.24;49.48;100659.72;5064213;28;20044;-39
2023/03/19 05:50:47;;;;;;;4.50;2.58;;;;;;;-0.08;49.57;100657.59;5071045;28;20036;-41
2023/03/19 05:53:20;;;;;;;7.18;3.42;;;;;;;0.12;49.08;100624.81;5072994;28;20043;-37
2023/03/19 05:56:12;;;;;;;4.63;2.30;;;;;;;0.76;47.61;100631.31;5067970;28;20051;-36
2023/03/19 05:58:51;;;;;;;4.28;2.67;;;;;;;1.75;46.44;100646.81;5079680;28;20538;-37
2023/03/19 06:01:22;;;;;;;6.18;2.60;;;;;;;2.44;44.91;100618.78;5074793;28;20035;-37
2023/03/19 06:03:49;;;;;;;13.65;2.90;;;;;;;3.57;43.91;100645.72;5089368;28;20043;-40
2023/03/19 06:06:15;;;;;;;3.88;2.20;;;;;;;4.35;42.27;100631.75;5083022;28;20043;-38
2023/03/19 06:08:43;;;;;;;7.00;2.67;;;;;;;5.06;41.71;100609.78;5066042;28;20422;-38
2023/03/19 06:11:16;;;;;;;5.53;2.47;;;;;;;5.91;39.76;100633.09;5090939;28;20063;-38
2023/03/19 06:13:46;;;;;;;4.50;2.30;;;;;;;6.61;38.86;100612.31;5051639;28;20143;-38
2023/03/19 06:16:15;;;;;;;4.65;2.65;;;;;;;7.62;37.21;100623.84;5073678;28;20051;-38
2023/03/19 06:19:00;;;;;;;8.65;2.85;;;;;;;8.24;36.05;100613.81;5086410;28;20035;-38
2023/03/19 06:21:28;;;;;;;5.65;2.45;;;;;;;8.99;35.34;100590.50;5079220;28;20504;-38
2023/03/19 06:23:56;;;;;;;8.10;3.30;;;;;;;9.84;34.06;100613.41;5069583;28;20089;-38
2023/03/19 06:26:28;;;;;;;5.93;2.50;;;;;;;10.43;32.95;100609.81;5088778;28;20126;-38
2023/03/19 06:28:57;;;;;;;7.90;3.17;;;;;;;10.69;31.87;100603.22;5081354;28;20040;-37
2023/03/19 06:31:23;;;;;;;8.90;4.60;;;;;;;11.56;30.93;100608.25;5085667;28;20040;-38
2023/03/19 06:33:53;;;;;;;4.88;2.97;;;;;;;12.00;30.00;100607.19;5066932;28;20043;-38
2023/03/19 06:36:20;;;;;;;6.05;2.83;;;;;;;11.73;28.97;100581.81;5074512;28;20492;-38
2023/03/19 06:38:47;;;;;;;6.05;2.75;;;;;;;12.37;28.69;100594.06;5064319;28;20043;-38
2023/03/19 06:41:13;;;;;;;5.72;2.78;;;;;;;13.02;27.85;100592.19;5077159;28;20056;-39
2023/03/19 06:43:41;;;;;;;8.30;3.13;;;;;;;13.46;26.95;100593.44;5092918;27;20769;-39
2023/03/19 06:46:08;;;;;;;8.23;2.75;;;;;;;14.25;26.43;100592.56;5082746;28;20051;-41
2023/03/19 06:48:34;;;;;;;7.10;2.72;;;;;;;14.96;25.79;100600.47;5078505;28;20039;-40
2023/03/19 06:51:00;;;;;;;4.43;2.50;;;;;;;15.76;25.03;100592.97;5073579;28;20511;-39
2023/03/19 06:53:27;;;;;;;5.38;3.00;;;;;;;16.57;24.29;100593.84;5077573;28;20048;-41
2023/03/19 06:55:53;;;;;;;4.65;3.47;;;;;;;16.91;23.41;100590.56;5079231;28;20048;-38
2023/03/19 06:58:19;;;;;;;4.07;3.25;;;;;;;17.51;22.85;100591.25;5075237;28;20043;-39
2023/03/19 07:00:46;;;;;;;7.40;3.20;;;;;;;17.94;21.99;100587.38;5086662;28;20548;-41
2023/03/19 07:03:11;;;;;;;5.30;3.55;;;;;;;18.34;21.48;100578.28;5081867;28;20044;-47
2023/03/19 07:05:37;;;;;;;5.93;3.42;;;;;;;18.65;20.87;100572.28;5082172;28;20097;-40
2023/03/19 07:08:10;;;;;;;12.43;3.45;;;;;;;18.53;20.43;100558.81;5081250;28;20180;-39
2023/03/19 07:10:37;;;;;;;4.85;3.47;;;;;;;19.15;19.91;100551.94;5082843;28;20598;-37
2023/03/19 07:13:04;;;;;;;7.60;3.90;;;;;;;19.83;19.49;100569.16;5078892;28;20075;-39
2023/03/19 07:15:30;;;;;;;7.97;3.80;;;;;;;20.51;19.26;100569.50;5075628;28;20036;-39
2023/03/19 07:17:56;;;;;;;12.30;3.88;;;;;;;19.88;18.53;100569.72;5075305;28;20094;-40
2023/03/19 07:20:22;;;;;;;6.57;3.30;;;;;;;19.92;18.54;100569.53;5073554;28;20040;-38
2023/03/19 07:22:51;;;;;;;8.45;3.10;;;;;;;20.38;17.89;100563.25;5078687;28;20036;-39
2023/03/19 07:25:17;;;;;;;;;;;;;;;20.35;18.17;100563.44;5072893;28;20063;-39
2023/03/19 07:27:44;;;;;;;5.35;3.67;;;;;;;21.04;17.68;100558.19;5081281;28;19920;-37
2023/03/19 07:30:11;;;;;;;7.10;3.40;;;;;;;21.78;17.25;100556.91;5080395;28;20559;-40
2023/03/19 07:32:38;;;;;;;8.18;4.38;;;;;;;21.89;17.15;100557.91;5076689;28;21068;-40
2023/03/19 07:35:06;;;;;;;6.93;3.53;;;;;;;22.12;17.04;100555.53;5057257;28;20937;-40
2023/03/19 07:37:32;;;;;;;8.67;5.77;;;;;;;21.98;16.78;100548.53;5091949;28;20064;-50
2023/03/19 07:39:58;;;;;;;6.43;4.32;;;;;;;22.12;16.56;100548.44;5067508;28;20314;-48
2023/03/19 07:42:23;;;;;;;5.60;3.33;;;;;;;22.33;16.51;100530.22;5071523;28;20538;-39
2023/03/19 07:44:49;;;;;;;7.00;3.70;;;;;;;22.84;15.85;100528.38;5076329;28;20046;-39
2023/03/19 07:47:16;;;;;;;8.93;4.47;;;;;;;23.37;15.50;100555.47;5074694;28;20048;-40
2023/03/19 07:49:42;;;;;;;6.78;3.17;;;;;;;23.69;15.31;100555.75;5079201;28;20093;-39
2023/03/19 07:52:08;;;;;;;10.13;3.28;;;;;;;23.68;15.31;100538.13;5078097;28;20384;-39
2023/03/19 07:54:34;;;;;;;11.30;4.55;;;;;;;23.55;15.08;100515.16;5092373;28;20048;-39
2023/03/19 07:57:00;;;;;;;6.25;4.05;;;;;;;23.81;15.15;100537.09;5078790;28;20131;-39
2023/03/19 07:59:26;;;;;;;10.07;4.53;;;;;;;23.85;15.07;100532.41;5070907;28;20063;-41
2023/03/19 08:01:52;;;;;;;6.18;3.72;;;;;;;24.01;15.01;100527.63;5078831;28;20040;-40
2023/03/19 08:04:18;;;;;;;7.32;3.40;;;;;;;23.93;14.95;100503.44;5082643;28;20464;-40
2023/03/19 08:06:44;;;;;;;6.85;2.90;;;;;;;24.21;14.72;100531.41;5063688;28;20044;-40
2023/03/19 08:09:10;;;;;;;9.68;3.30;;;;;;;23.49;14.52;100523.59;5082750;28;20062;-39
2023/03/19 08:11:36;;;;;;;5.15;3.10;;;;;;;22.30;15.23;100499.47;5078936;28;20040;-40
2023/03/19 08:14:02;;;;;;;6.88;3.25;;;;;;;21.98;15.16;100530.00;5076221;28;20424;-39
2023/03/19 08:16:28;;;;;;;10.23;3.70;;;;;;;22.40;15.46;100515.56;5091833;28;20058;-39
2023/03/19 08:18:54;;;;;;;6.15;3.80;;;;;;;23.20;15.26;100515.09;5051282;28;20743;-39
2023/03/19 08:21:21;;;;;;;7.40;3.72;;;;;;;23.80;14.63;100482.28;5081553;28;20535;-39
2023/03/19 08:23:47;;;;;;;7.25;4.40;;;;;;;24.32;14.30;100504.84;5076074;28;20530;-39
2023/03/19 08:26:12;;;;;;;11.07;4.32;;;;;;;24.31;14.42;100482.75;5081587;28;20045;-45
2023/03/19 08:28:39;;;;;;;8.85;4.60;;;;;;;24.71;14.35;100490.19;5081329;28;20684;-39
2023/03/19 08:31:10;;;;;;;8.20;4.18;;;;;;;24.83;14.17;100487.41;5075257;28;20032;-39
2023/03/19 08:33:36;;;;;;;9.70;4.53;;;;;;;25.20;13.67;100485.28;5081213;28;20032;-40
2023/03/19 08:36:06;;;;;;;11.70;4.00;;;;;;;25.28;13.82;100481.97;5079394;28;20040;-39
2023/03/19 08:38:31;;;;;;;;;;;;;;;25.43;13.94;100469.22;5076456;28;20045;-40
2023/03/19 08:41:01;;;;;;;6.72;3.65;;;;;;;25.62;13.89;100472.06;5083534;28;20297;-39
2023/03/19 08:43:28;;;;;;;13.95;6.78;;;;;;;25.48;13.91;100462.53;5083772;28;20067;-40
2023/03/19 08:45:54;;;;;;;9.63;4.40;;;;;;;25.52;13.50;100468.44;5081957;28;20423;-40
2023/03/19 08:48:20;;;;;;;13.98;5.05;;;;;;;26.01;13.62;100454.50;5096508;27;20573;-42
2023/03/19 08:50:52;;;;;;;9.55;4.22;;;;;;;25.88;13.31;100438.72;5084426;28;20105;-39
2023/03/19 08:53:18;;;;;;;8.43;3.97;;;;;;;26.69;13.17;100451.16;5079455;28;20047;-39
2023/03/19 08:55:44;;;;;;;8.82;4.20;;;;;;;27.15;12.79;100447.03;5079609;28;20036;-39
2023/03/19 08:58:10;;;;;;;9.65;4.38;;;;;;;27.45;12.52;100435.34;5092358;28;20043;-38
2023/03/19 09:00:36;;;;;;;13.68;5.10;;;;;;;27.51;12.80;100435.66;5098126;28;20505;-38
2023/03/19 09:03:02;;;;;;;7.70;4.75;;;;;;;27.54;12.36;100438.03;5082055;28;20050;-38
2023/03/19 09:05:28;;;;;;;11.68;5.43;;;;;;;27.73;12.69;100434.50;5084142;28;20040;-39
2023/03/19 09:07:54;;;;;;;8.73;5.45;;;;;;;27.76;12.28;100419.00;5103040;28;20050;-39
2023/03/19 09:10:20;;;;;;;14.65;6.20;;;;;;;27.96;12.28;100424.28;5102875;28;20064;-37
2023/03/19 09:12:46;;;;;;;10.85;5.68;;;;;;;27.79;12.12;100420.56;5088308;28;20039;-39
2023/03/19 09:15:12;;;;;;;12.38;5.93;;;;;;;27.90;12.06;100422.22;5097402;28;20050;-38
2023/03/19 09:17:38;;;;;;;11.38;5.53;;;;;;;28.17;12.12;100417.75;5098468;28;20063;-37
2023/03/19 09:20:06;;;;;;;14.63;4.95;;;;;;;28.48;12.00;100414.78;5102452;28;20063;-39
2023/03/19 09:22:32;;;;;;;10.52;5.45;;;;;;;28.49;11.99;100411.97;5088174;28;20059;-38
2023/03/19 09:24:57;;;;;;;11.95;4.93;;;;;;;28.47;11.94;100400.56;5088401;28;20519;-39
2023/03/19 09:27:23;;;;;;;15.90;5.47;;;;;;;28.56;11.87;100390.81;5103870;28;20040;-38
2023/03/19 09:29:50;;;;;;;9.45;4.95;;;;;;;28.89;11.76;100413.44;5090077;28;20043;-38
2023/03/19 09:32:16;;;;;;;12.38;4.95;;;;;;;28.78;11.90;100409.16;5095439;27;20047;-37
2023/03/19 09:34:42;;;;;;;8.18;4.57;;;;;;;28.73;11.69;100411.44;5080368;28;20093;-39
2023/03/19 09:37:10;;;;;;;9.57;4.88;;;;;;;28.35;12.23;100417.81;5097790;28;20043;-40
2023/03/19 09:39:36;;;;;;;18.35;7.25;;;;;;;28.59;12.35;100410.06;5085702;28;20860;-40
2023/03/19 09:42:29;;;;;;;9.73;6.45;;;;;;;28.80;12.02;100411.66;5090339;28;20059;-39
2023/03/19 09:44:55;;;;;;;8.43;4.22;;;;;;;28.92;11.70;100408.63;5091287;28;20035;-40
2023/03/19 09:47:30;;;;;;;11.68;3.80;;;;;;;28.40;11.77;100409.34;5103554;28;20150;-39
2023/03/19 09:49:58;;;;;;;4.47;3.40;;;;;;;28.85;11.89;100396.81;5034831;28;20044;-38
2023/03/19 09:52:43;;;;;;;;;;;;;;;29.28;11.88;100405.91;5094412;28;20035;-40
2023/03/19 09:55:18;;;;;;;6.57;2.83;;;;;;;29.58;11.56;100400.13;5079232;28;19957;-39
2023/03/19 09:57:45;;;;;;;7.63;3.65;;;;;;;28.79;11.47;100396.56;5103067;28;20040;-42
2023/03/19 10:00:37;;;;;;;6.20;3.80;;;;;;;27.73;12.15;100395.25;5086342;28;20696;-40
2023/03/19 10:03:25;;;;;;;7.35;3.90;;;;;;;28.54;11.97;100382.91;5090700;28;20043;-38
2023/03/19 10:06:00;;;;;;;9.25;4.22;;;;;;;29.25;11.54;100395.53;5077353;28;20807;-39
2023/03/19 10:08:42;;;;;;;7.72;4.20;;;;;;;29.22;11.49;100388.63;5069536;28;20427;-39
2023/03/19 10:11:17;;;;;;;10.30;4.03;;;;;;;29.45;11.35;100380.97;5078977;28;20044;-38
2023/03/19 10:13:58;;;;;;;6.30;3.70;;;;;;;29.75;11.28;100383.16;5089763;28;20051;-39
2023/03/19 10:16:26;;;;;;;13.45;4.30;;;;;;;29.74;11.63;100384.16;5097401;28;20059;-38
2023/03/19 10:18:56;;;;;;;9.32;4.20;;;;;;;29.73;11.01;100376.31;5082032;28;20094;-38
2023/03/19 10:21:28;;;;;;;7.85;4.05;;;;;;;29.16;11.43;100366.97;5081086;28;20041;-40
2023/03/19 10:24:05;;;;;;;8.20;4.60;;;;;;;29.04;11.59;100359.19;5088471;28;20119;-40
2023/03/19 10:26:36;;;;;;;7.43;3.70;;;;;;;29.76;11.46;100362.56;5070565;28;20047;-48
2023/03/19 10:29:15;;;;;;;7.82;3.90;;;;;;;29.95;11.15;100358.81;5054389;28;20031;-38
2023/03/19 10:31:49;;;;;;;10.05;4.20;;;;;;;29.17;11.47;100368.66;5050850;28;20160;-39
2023/03/19 10:34:15;;;;;;;8.50;4.57;;;;;;;28.18;11.93;100360.59;5099341;28;20530;-39
2023/03/19 10:36:41;;;;;;;7.50;3.90;;;;;;;28.50;12.05;100357.47;5084946;28;20041;-40
2023/03/19 10:39:06;;;;;;;11.57;4.13;;;;;;;29.22;11.81;100348.44;5087886;28;20130;-40
2023/03/19 10:42:13;;;;;;;7.07;4.38;;;;;;;29.62;11.26;100347.91;5084449;28;20055;-39
2023/03/19 10:45:05;;;;;;;7.00;4.72;;;;;;;29.57;11.35;100333.31;5080200;28;20048;-40
2023/03/19 10:47:36;;;;;;;6.28;4.28;;;;;;;29.92;11.36;100337.69;5083137;28;20039;-39
2023/03/19 10:50:02;;;;;;;7.00;4.35;;;;;;;29.92;11.61;100338.53;5087507;28;20507;-40
2023/03/19 10:52:34;;;;;;;6.57;4.15;;;;;;;29.53;11.41;100331.91;5085396;28;20046;-40
2023/03/19 10:55:04;;;;;;;7.10;4.78;;;;;;;28.64;11.60;100306.09;5094821;28;20036;-40
2023/03/19 10:57:32;;;;;;;9.23;4.80;;;;;;;28.60;11.79;100328.81;5093929;28;20636;-39
2023/03/19 11:00:05;;;;;;;7.50;4.38;;;;;;;29.17;11.59;100329.31;5087664;28;20047;-39
2023/03/19 11:02:32;;;;;;;8.18;4.50;;;;;;;29.58;11.63;100298.28;5078346;28;20037;-43
2023/03/19 11:05:13;;;;;;;7.38;4.55;;;;;;;30.02;11.49;100320.47;5095752;28;20047;-40
2023/03/19 11:07:39;;;;;;;8.88;4.60;;;;;;;30.15;11.16;100330.75;5094876;28;20051;-38
2023/03/19 11:10:13;;;;;;;5.57;4.70;;;;;;;29.02;11.35;100309.44;5105310;28;20143;-40
2023/03/19 11:12:39;;;;;;;7.63;5.60;;;;;;;28.20;11.94;100318.53;5078448;28;20044;-39
2023/03/19 11:15:17;;;;;;;10.55;4.43;;;;;;;28.61;11.93;100289.50;5091953;27;20051;-38
2023/03/19 11:17:56;;;;;;;;;;;;;;;29.30;11.74;100316.38;5056942;28;21545;-39
2023/03/19 11:20:36;;;;;;;10.65;4.88;;;;;;;29.57;11.48;100311.88;5077115;28;19986;-38
2023/03/19 11:23:11;;;;;;;9.75;5.03;;;;;;;29.02;11.75;100301.41;5085261;28;20040;-39
2023/03/19 11:25:41;;;;;;;11.63;4.60;;;;;;;29.54;11.45;100304.97;5083947;28;20051;-39
2023/03/19 11:28:16;;;;;;;8.68;4.85;;;;;;;28.77;11.40;100303.06;5071402;28;20126;-38
2023/03/19 11:30:56;;;;;;;11.00;5.07;;;;;;;27.89;12.04;100302.91;5070610;28;20049;-39
2023/03/19 11:33:47;;;;;;;7.82;5.22;;;;;;;28.56;11.62;100302.50;5077360;28;20039;-39
2023/03/19 11:36:30;;;;;;;8.15;4.80;;;;;;;28.84;11.80;100292.59;5028375;28;20531;-40
2023/03/19 11:38:59;;;;;;;11.13;5.45;;;;;;;28.65;11.78;100294.41;5072456;28;20522;-39